Benvolgut visitant, si us plau, ingressa Recuperar contrasenya
AVAMET paisatges
Union Alcoyana

Sant Miquel de les Salines Lo Meca

Dades diàries. Acumulats / Últims 30 dies disponibles

Data Temperatura (°C) Humitat rel. (%) Pressió rel. (hPa) Vent (km/h) Precipitació
Mínima Mitjana Màxima Amplitud
tèrmica
Mínima Mitjana Màxima Mínima Mitjana Màxima Predom. Mitjana Ràfega
màxima
Total
(mm)
Índex-n
Mínima Mitjana Màxima Mínima Mitjana Màxima n
0 a 1
P0 max
mm 5'
Dades mensuals acumulades fins l'últim dia disponible
05/2022 11,7 14,4 18,1 19,4 16,8 24,8 28,5 16,8 26 60 89 1.010 1.019 1.025   6,8 44,0 0,0
Dades anuals acumulades fins l'últim dia disponible
2022 4,2 10,2 18,1 14,1 10,6 19,0 28,5 24,3 3 62 90 1.000 1.020 1.036   8,7 61,0 0,0
Últims 30 dies disponibles
20-05-2022 18,1     23,6     28,2 10,1 34 49 63 1.021 1.022 1.023 SSE 10,8 44,0 0,0
19-05-2022 16,7     22,1     26,8 10,1 36 54 69 1.019 1.020 1.022 SSE 9,3 34,0 0,0
18-05-2022 16,8     21,8     26,3 9,5 48 61 73 1.018 1.018 1.020 SSE 5,0 23,0 0,0
17-05-2022 17,0     22,1     28,5 11,5 34 58 81 1.017 1.019 1.020 S 5,5 24,0 0,0
16-05-2022 15,4     21,2     26,3 10,9 50 67 87 1.017 1.019 1.021 SSE 4,8 24,0 0,0
15-05-2022 15,5     20,5     26,3 10,8 35 56 82 1.016 1.017 1.018 S 5,6 24,0 0,0
14-05-2022 14,6     20,1     25,5 10,9 26 61 87 1.017 1.019 1.021 S 4,8 23,0 0,0
13-05-2022 15,7     19,7     25,4 9,7 38 65 87 1.020 1.021 1.022 S 7,1 27,0 0,0
12-05-2022 12,7     18,2     23,2 10,5 42 65 87 1.020 1.021 1.022 S 7,6 29,0 0,0
11-05-2022 12,8     18,4     24,7 11,9 31 56 76 1.020 1.022 1.024 S 5,6 29,0 0,0
10-05-2022 13,2     18,6     24,3 11,1 29 51 71 1.023 1.023 1.025 SSO 5,3 26,0 0,0
09-05-2022 12,9     18,5     24,1 11,2 28 58 87 1.021 1.022 1.024 S 5,4 26,0 0,0
08-05-2022 12,4     18,7     25,5 13,1 28 51 74 1.018 1.019 1.021 SSO 6,5 27,0 0,0
07-05-2022 13,7     18,3     24,4 10,7 28 53 72 1.019 1.020 1.021 SSO 6,8 23,0 0,0
06-05-2022 11,7     17,1     24,4 12,7 40 63 85 1.019 1.020 1.023 SSO 6,1 26,0 0,0
05-05-2022 13,5     17,3     23,1 9,6 39 63 86 1.017 1.019 1.023 SO 9,1 26,0 0,0
04-05-2022 13,2     14,3     16,8 3,6 70 85 89 1.013 1.014 1.017 S 8,5 35,0 0,0
03-05-2022 12,8     18,3     22,9 10,1 43 59 77 1.010 1.012 1.014 SSE 8,9 29,0 0,0
30-04-2022 12,5     18,9     25,7 13,2 22 46 73 1.019 1.021 1.024 SO 10,7 39,0 0,0
29-04-2022 11,5     16,3     21,1 9,6 40 60 76 1.021 1.023 1.024 SSO 9,3 39,0 0,0
28-04-2022 11,8     13,6     15,4 3,6 66 79 88 1.017 1.019 1.022 SO 4,0 23,0 0,0
27-04-2022 12,8     14,8     19,3 6,5 35 64 81 1.014 1.017 1.019 OSO 4,4 26,0 0,0
26-04-2022 10,6     15,0     19,8 9,2 35 64 86 1.013 1.014 1.016 S 5,9 26,0 0,0
25-04-2022 11,0     17,8     20,8 9,8 34 53 75 1.012 1.013 1.015 SE 7,7 24,0 0,0
23-04-2022 11,7     15,0     19,9 8,2 24 54 69 1.000 1.002 1.006 OSO 13,3 50,0 0,0
22-04-2022 11,3     15,9     18,8 7,5 38 49 59 1.000 1.004 1.007 OSO 7,2 45,0 0,0
21-04-2022 11,8     16,0     21,5 9,7 26 48 69 1.003 1.005 1.007 O 14,2 47,0 0,0
20-04-2022 7,5     12,5     14,8 7,3 66 82 89 1.001 1.003 1.007 SSO 9,6 47,0 0,0
19-04-2022 12,9     16,6     20,4 7,5 54 71 87 1.006 1.010 1.014 S 7,4 31,0 0,0
18-04-2022 12,8     17,0     22,9 10,1 34 66 87 1.013 1.016 1.018 S 5,1 27,0 0,0
Últims 13 mesos disponibles
12/2021 6,8 10,6 14,6 14,1 13,5 18,5 24,7 17,9 36 60 83 1.010 1.021 1.028 OSO 9,0 84,0
11/2021 6,7 10,6 13,8 14,1 13,6 18,9 23,3 16,6 35 54 82 1.007 1.016 1.027 O 9,8 56,0
10/2021 13,7 16,0 19,0 19,7 21,1 24,8 30,0 16,3 38 65 79 1.011 1.019 1.026 SSO 6,1 55,0
09/2021 15,9 20,4 23,8 24,4 25,4 29,5 34,4 18,5 39 62 76 1.013 1.017 1.024 SSO 7,3 50,0
08/2021 20,2 22,6 24,8 27,0 27,9 31,8 38,9 18,7 31 61 75 1.007 1.015 1.020 S 8,2 42,0
07/2021 19,6 21,2 23,3 25,8 27,4 30,5 41,1 21,5 43 64 78 1.009 1.015 1.021 S 7,4 37,0
06/2021 15,8 18,6 20,8 22,9 23,7 27,5 31,2 15,4 39 62 82 1.010 1.016 1.021 S 8,2 52,0
05/2021 11,7 14,9 19,0 19,6 19,3 24,7 34,4 22,7 31 58 80 1.008 1.017 1.023 SO 9,0 48,0
04/2021 7,9 11,9 14,2 15,5 13,6 19,9 27,9 20,0 45 67 81 1.006 1.015 1.024 SE 8,1 47,0
03/2021 5,4 9,8 13,7 13,6 12,8 18,4 24,3 18,9 48 65 90 1.013 1.022 1.028 SSE 8,4 53,0
02/2021 7,4 10,6 17,1 14,2 15,2 18,4 25,2 17,8 34 61 85 1.003 1.019 1.035 O 8,4 58,0
01/2021 3,3 7,7 16,4 11,6 8,7 16,3 26,6 23,3 30 53 89 1.004 1.017 1.028 O 10,2 55,0
05/2020 12,7 15,6 18,4 20,8 20,4 25,8 31,9 19,2 42 57 75 1.007 1.017 1.026 SSE 8,2 47,0
Tots els anys disponibles
2021 3,3 14,4 24,8 18,3 8,7 23,1 41,1 37,8 30 61 90 1.003 1.018 1.035 S 8,3 84,0
Temperatura (°C)
Velocitat del vent i ràfega màxima (km/h)
Direcció del vent (°)
Pressió (hPa)
Nota sobre les dades: s'avisa a l'usuari de la provisionalitat i no oficialitat d'aquestes dades
Logo AVAMET blanc
Web allotjada a Sollutia
Llicència de Creative CommonsLa web d'AVAMET i els seus continguts estan subjectes a una llicència de
Reconeixement - No Comercial - Compartir igual
Avís legal - Política de privacitat - Política de cookies
NOVES ESTACIONS:  Vila-real - les Solaes (Soci), Calles - Parque de Emergencias (Soci), Bocairent - els Corrals (Soci), Sella - el Xarquer, Xàbia - Far del Cap de la Nau (Soci), Benicàssim - Quadre de Santiago (Soci), Sant Mateu - IES Maestrat (Soci)  / el Palomar (Ajuntament/Soci) / Atzeneta del Maestrat - Pla de Meanes (Ajuntament/Soci) / Onda - Sant Gil (Soci) / Onda - Ràtils CR Cota 220 (Soci) / la Vila Joiosa (Ajuntament/Soci) / Miramar - Platja (Ajuntament/Soci) / Massanassa - IES Massanassa (Soci) / Culla - Pla de les Vinyes (Ajuntament/Soci) - - -